createdAt,value
2018-03-01T00:00:44.849Z,54.83
2018-03-01T00:01:44.857Z,55.11
2018-03-01T00:02:45.120Z,54.74
2018-03-01T00:03:45.120Z,54.93
2018-03-01T00:04:44.876Z,55.11
2018-03-01T00:05:45.153Z,55.21
2018-03-01T00:06:45.144Z,55.78
2018-03-01T00:07:45.150Z,56.15
2018-03-01T00:08:44.903Z,55.87
2018-03-01T00:09:45.162Z,55.78
2018-03-01T00:10:45.168Z,55.49
2018-03-01T00:11:45.176Z,56.15
2018-03-01T00:12:45.183Z,56.06
2018-03-01T00:13:45.186Z,55.96
2018-03-01T00:14:45.199Z,55.87
2018-03-01T00:15:45.200Z,55.96
2018-03-01T00:16:44.954Z,55.87
2018-03-01T00:17:45.214Z,56.06
2018-03-01T00:18:45.222Z,56.34
2018-03-01T00:19:45.225Z,56.53
2018-03-01T00:20:44.987Z,56.44
2018-03-01T00:21:44.986Z,56.53
2018-03-01T00:22:45.249Z,57
2018-03-01T00:23:45.258Z,57.1
2018-03-01T00:24:45.006Z,57
2018-03-01T00:25:45.013Z,56.81
2018-03-01T00:26:45.274Z,57.57
2018-03-01T00:27:45.025Z,57.57
2018-03-01T00:28:45.282Z,57.57
2018-03-01T00:29:45.295Z,57.47
2018-03-01T00:30:45.321Z,57.76
2018-03-01T00:31:45.303Z,57.38
2018-03-01T00:32:45.310Z,57.57
2018-03-01T00:33:45.314Z,57.38
2018-03-01T00:34:45.323Z,57.19
2018-03-01T00:35:45.456Z,57.1
2018-03-01T00:36:45.344Z,57.57
2018-03-01T00:37:45.089Z,56.91
2018-03-01T00:38:45.098Z,56.91
2018-03-01T00:39:45.354Z,56.53
2018-03-01T00:40:45.360Z,56.34
2018-03-01T00:41:45.426Z,56.44
2018-03-01T00:42:45.378Z,56.62
2018-03-01T00:43:45.385Z,56.62
2018-03-01T00:44:45.386Z,56.44
2018-03-01T00:45:45.395Z,56.62
2018-03-01T00:46:45.412Z,56.91
2018-03-01T00:47:45.406Z,56.44
2018-03-01T00:48:45.160Z,56.15
2018-03-01T00:49:45.167Z,56.25
2018-03-01T00:50:45.174Z,56.34
2018-03-01T00:51:45.434Z,56.25
2018-03-01T00:52:45.436Z,55.49
2018-03-01T00:53:45.468Z,55.78
2018-03-01T00:54:45.457Z,55.87
2018-03-01T00:55:45.466Z,55.96
2018-03-01T00:56:45.212Z,55.87
2018-03-01T00:57:45.472Z,56.15
2018-03-01T00:58:45.480Z,56.44
2018-03-01T00:59:45.485Z,56.44
2018-03-01T01:00:45.497Z,57.1
2018-03-01T01:01:45.498Z,57.38
2018-03-01T01:02:45.256Z,57.47
2018-03-01T01:03:45.257Z,57.57
2018-03-01T01:04:45.519Z,56.81
2018-03-01T01:05:45.529Z,57.1
2018-03-01T01:06:45.532Z,56.72
2018-03-01T01:07:45.286Z,57.38
2018-03-01T01:08:45.541Z,57.19
2018-03-01T01:09:45.294Z,57.29
2018-03-01T01:10:45.300Z,57.76
2018-03-01T01:11:45.569Z,57.47
2018-03-01T01:12:45.567Z,57.66
2018-03-01T01:13:45.578Z,57.95
2018-03-01T01:14:45.580Z,58.23
2018-03-01T01:15:45.595Z,57.85
2018-03-01T01:16:45.599Z,58.32
2018-03-01T01:17:45.598Z,58.8
2018-03-01T01:18:45.358Z,58.61
2018-03-01T01:19:45.615Z,58.98
2018-03-01T01:20:45.621Z,58.51
2018-03-01T01:21:45.626Z,58.61
2018-03-01T01:22:45.634Z,58.61
2018-03-01T01:23:45.641Z,58.32
2018-03-01T01:24:45.392Z,57.76
2018-03-01T01:25:45.653Z,57.66
2018-03-01T01:26:45.403Z,57.95
2018-03-01T01:27:45.664Z,57.66
2018-03-01T01:28:45.680Z,57.57
2018-03-01T01:29:45.677Z,58.04
2018-03-01T01:30:45.429Z,58.42
2018-03-01T01:31:45.434Z,58.23
2018-03-01T01:32:45.694Z,58.04
2018-03-01T01:33:45.704Z,58.13
2018-03-01T01:34:45.716Z,57.47
2018-03-01T01:35:45.463Z,57.85
2018-03-01T01:36:45.719Z,57.29
2018-03-01T01:37:45.727Z,57.66
2018-03-01T01:38:45.733Z,58.04
2018-03-01T01:39:45.738Z,58.42
2018-03-01T01:40:45.756Z,58.04
2018-03-01T01:41:45.755Z,57.57
2018-03-01T01:42:45.761Z,57.95
2018-03-01T01:43:45.767Z,58.13
2018-03-01T01:44:45.518Z,57.85
2018-03-01T01:45:45.786Z,57.85
2018-03-01T01:46:45.545Z,58.23
2018-03-01T01:47:45.790Z,58.23
2018-03-01T01:48:45.805Z,58.8
2018-03-01T01:49:45.846Z,58.8
2018-03-01T01:50:45.815Z,59.55
2018-03-01T01:51:45.562Z,59.45
2018-03-01T01:52:45.835Z,58.98
2018-03-01T01:53:45.837Z,59.45
2018-03-01T01:54:45.843Z,59.55
2018-03-01T01:55:45.921Z,58.89
2018-03-01T01:56:45.846Z,58.8
2018-03-01T01:57:45.607Z,58.51
2018-03-01T01:58:45.610Z,58.8
2018-03-01T01:59:45.891Z,58.8
2018-03-01T02:00:45.620Z,58.61
2018-03-01T02:01:45.882Z,58.51
2018-03-01T02:02:45.914Z,58.7
2018-03-01T02:03:45.638Z,58.61
2018-03-01T02:04:45.899Z,58.51
2018-03-01T02:05:45.650Z,58.51
2018-03-01T02:06:45.660Z,58.7
2018-03-01T02:07:45.917Z,58.89
2018-03-01T02:08:45.924Z,58.61
2018-03-01T02:09:45.934Z,58.8
2018-03-01T02:10:45.987Z,58.7
2018-03-01T02:11:45.944Z,58.32
2018-03-01T02:12:45.697Z,57.85
2018-03-01T02:13:45.962Z,57.76
2018-03-01T02:14:45.961Z,57.47
2018-03-01T02:15:45.972Z,57.76
2018-03-01T02:16:45.975Z,58.04
2018-03-01T02:17:45.729Z,57.76
2018-03-01T02:18:45.986Z,57.76
2018-03-01T02:19:45.997Z,58.04
2018-03-01T02:20:46.056Z,57.95
2018-03-01T02:21:46.011Z,57.66
2018-03-01T02:22:46.033Z,57.85
2018-03-01T02:23:45.767Z,57.66
2018-03-01T02:24:46.028Z,57.85
2018-03-01T02:25:46.089Z,57.95
2018-03-01T02:26:46.038Z,57.76
2018-03-01T02:27:46.050Z,58.42
2018-03-01T02:28:46.053Z,58.51
2018-03-01T02:29:46.059Z,58.32
2018-03-01T02:30:46.075Z,58.42
2018-03-01T02:31:46.074Z,58.51
2018-03-01T02:32:46.082Z,58.61
2018-03-01T02:33:46.087Z,57.95
2018-03-01T02:34:46.100Z,58.04
2018-03-01T02:35:46.098Z,57.85
2018-03-01T02:36:46.106Z,58.13
2018-03-01T02:37:46.114Z,57.76
2018-03-01T02:38:46.119Z,57.38
2018-03-01T02:39:46.127Z,57.69
2018-03-01T02:40:46.185Z,57.6
2018-03-01T02:41:46.137Z,57.31
2018-03-01T02:42:45.902Z,57.41
2018-03-01T02:43:45.893Z,57.22
2018-03-01T02:44:46.158Z,57.47
2018-03-01T02:45:45.932Z,57.47
2018-03-01T02:46:45.915Z,57.66
2018-03-01T02:47:46.175Z,57.57
2018-03-01T02:48:46.189Z,57.85
2018-03-01T02:49:46.189Z,57.95
2018-03-01T02:50:46.199Z,58.42
2018-03-01T02:51:46.205Z,58.42
2018-03-01T02:52:45.955Z,57.85
2018-03-01T02:53:45.965Z,57.66
2018-03-01T02:54:46.224Z,58.32
2018-03-01T02:55:46.022Z,58.42
2018-03-01T02:56:45.979Z,59.55
2018-03-01T02:57:45.986Z,59.17
2018-03-01T02:58:46.246Z,59.74
2018-03-01T02:59:45.998Z,59.64
2018-03-01T03:00:46.262Z,59.83
2018-03-01T03:01:46.014Z,59.74
2018-03-01T03:02:46.314Z,59.83
2018-03-01T03:03:46.284Z,59.55
2018-03-01T03:04:46.034Z,59.45
2018-03-01T03:05:46.187Z,59.64
2018-03-01T03:06:46.296Z,59.64
2018-03-01T03:07:46.048Z,59.74
2018-03-01T03:08:46.057Z,59.64
2018-03-01T03:09:46.315Z,59.92
2018-03-01T03:10:46.117Z,60.02
2018-03-01T03:11:46.332Z,60.68
2018-03-01T03:12:46.336Z,60.58
2018-03-01T03:13:46.339Z,60.77
2018-03-01T03:14:46.346Z,60.58
2018-03-01T03:15:46.357Z,60.02
2018-03-01T03:16:46.363Z,60.11
2018-03-01T03:17:46.367Z,60.77
2018-03-01T03:18:46.373Z,60.86
2018-03-01T03:19:46.380Z,60.77
2018-03-01T03:20:46.386Z,59.92
2018-03-01T03:21:46.401Z,59.55
2018-03-01T03:22:46.397Z,59.64
2018-03-01T03:23:46.404Z,59.64
2018-03-01T03:24:46.409Z,60.11
2018-03-01T03:25:46.465Z,60.86
2018-03-01T03:26:46.424Z,61.05
2018-03-01T03:27:46.425Z,61.05
2018-03-01T03:28:46.449Z,60.96
2018-03-01T03:29:46.185Z,60.58
2018-03-01T03:30:46.198Z,60.77
2018-03-01T03:31:46.451Z,60.68
2018-03-01T03:32:46.205Z,60.58
2018-03-01T03:33:46.211Z,60.68
2018-03-01T03:34:46.471Z,60.58
2018-03-01T03:35:46.223Z,59.92
2018-03-01T03:36:46.487Z,59.55
2018-03-01T03:37:46.497Z,59.74
2018-03-01T03:38:46.496Z,59.45
2018-03-01T03:39:46.503Z,59.17
2018-03-01T03:40:46.305Z,59.17
2018-03-01T03:41:46.261Z,59.55
2018-03-01T03:42:46.520Z,59.45
2018-03-01T03:43:46.526Z,58.8
2018-03-01T03:44:46.533Z,58.61
2018-03-01T03:45:46.538Z,58.61
2018-03-01T03:46:46.543Z,58.61
2018-03-01T03:47:46.551Z,58.8
2018-03-01T03:48:46.563Z,58.98
2018-03-01T03:49:46.563Z,58.61
2018-03-01T03:50:46.317Z,58.7
2018-03-01T03:51:46.594Z,58.8
2018-03-01T03:52:46.331Z,58.98
2018-03-01T03:53:46.594Z,59.36
2018-03-01T03:54:46.340Z,59.08
2018-03-01T03:55:46.661Z,59.74
2018-03-01T03:56:46.607Z,59.92
2018-03-01T03:57:46.360Z,59.64
2018-03-01T03:58:46.619Z,59.64
2018-03-01T03:59:46.374Z,59.74
2018-03-01T04:00:46.632Z,59.17
2018-03-01T04:01:46.646Z,59.45
2018-03-01T04:02:46.392Z,58.92
2018-03-01T04:03:46.653Z,58.63
2018-03-01T04:04:46.660Z,58.51
2018-03-01T04:05:46.671Z,58.35
2018-03-01T04:06:46.418Z,58.35
2018-03-01T04:07:46.679Z,58.32
2018-03-01T04:08:46.681Z,58.26
2018-03-01T04:09:46.443Z,57.88
2018-03-01T04:10:46.796Z,57.69
2018-03-01T04:11:46.709Z,57.95
2018-03-01T04:12:46.711Z,58.13
2018-03-01T04:13:46.463Z,58.51
2018-03-01T04:14:46.469Z,57.95
2018-03-01T04:15:46.730Z,58.42
2018-03-01T04:16:46.738Z,58.42
2018-03-01T04:17:46.742Z,58.61
2018-03-01T04:18:46.494Z,58.26
2018-03-01T04:19:46.753Z,58.32
2018-03-01T04:20:46.758Z,58.23
2018-03-01T04:21:46.515Z,58.23
2018-03-01T04:22:46.779Z,58.8
2018-03-01T04:23:46.785Z,59.36
2018-03-01T04:24:46.789Z,59.45
2018-03-01T04:25:46.845Z,59.45
2018-03-01T04:26:46.808Z,59.64
2018-03-01T04:27:46.811Z,60.02
2018-03-01T04:28:46.816Z,60.02
2018-03-01T04:29:46.567Z,59.45
2018-03-01T04:30:46.828Z,59.45
2018-03-01T04:31:46.832Z,59.92
2018-03-01T04:32:46.847Z,59.83
2018-03-01T04:33:46.845Z,59.36
2018-03-01T04:34:46.601Z,59.45
2018-03-01T04:35:46.864Z,59.55
2018-03-01T04:36:46.613Z,58.7
2018-03-01T04:37:46.871Z,58.89
2018-03-01T04:38:46.883Z,58.82
2018-03-01T04:39:46.910Z,58.98
2018-03-01T04:40:46.940Z,58.7
2018-03-01T04:41:46.901Z,58.7
2018-03-01T04:42:46.905Z,59.17
2018-03-01T04:43:46.656Z,59.27
2018-03-01T04:44:46.919Z,59.92
2018-03-01T04:45:46.924Z,59.74
2018-03-01T04:46:46.947Z,60.11
2018-03-01T04:47:46.938Z,60.11
2018-03-01T04:48:46.944Z,60.02
2018-03-01T04:49:46.952Z,59.83
2018-03-01T04:50:46.957Z,59.92
2018-03-01T04:51:46.962Z,59.83
2018-03-01T04:52:46.967Z,60.02
2018-03-01T04:53:46.719Z,59.64
2018-03-01T04:54:46.981Z,59.64
2018-03-01T04:55:47.065Z,59.92
2018-03-01T04:56:46.994Z,59.64
2018-03-01T04:57:46.742Z,59.74
2018-03-01T04:58:46.751Z,59.64
2018-03-01T04:59:46.760Z,59.64
2018-03-01T05:00:47.016Z,59.55
2018-03-01T05:01:46.770Z,59.55
2018-03-01T05:02:47.030Z,60.39
2018-03-01T05:03:47.040Z,60.3
2018-03-01T05:04:46.792Z,60.86
2018-03-01T05:05:46.798Z,60.96
2018-03-01T05:06:47.057Z,60.68
2018-03-01T05:07:47.062Z,60.96
2018-03-01T05:08:46.816Z,60.58
2018-03-01T05:09:47.076Z,60.86
2018-03-01T05:10:47.133Z,60.68
2018-03-01T05:11:46.833Z,60.58
2018-03-01T05:12:47.095Z,60.58
2018-03-01T05:13:46.846Z,60.39
2018-03-01T05:14:47.108Z,60.02
2018-03-01T05:15:47.114Z,59.77
2018-03-01T05:16:46.867Z,59.55
2018-03-01T05:17:46.871Z,59.86
2018-03-01T05:18:47.154Z,59.55
2018-03-01T05:19:46.892Z,60.21
2018-03-01T05:20:47.144Z,60.68
2018-03-01T05:21:47.149Z,60.86
2018-03-01T05:22:46.902Z,60.77
2018-03-01T05:23:47.164Z,61.05
2018-03-01T05:24:46.915Z,61.52
2018-03-01T05:25:47.224Z,61.05
2018-03-01T05:26:46.929Z,60.96
2018-03-01T05:27:46.933Z,60.86
2018-03-01T05:28:46.939Z,61.05
2018-03-01T05:29:47.202Z,61.24
2018-03-01T05:30:46.954Z,60.96
2018-03-01T05:31:46.957Z,60.3
2018-03-01T05:32:47.221Z,60.86
2018-03-01T05:33:47.226Z,60.77
2018-03-01T05:34:47.232Z,60.39
2018-03-01T05:35:47.240Z,60.49
2018-03-01T05:36:47.001Z,60.86
2018-03-01T05:37:47.007Z,60.39
2018-03-01T05:38:47.002Z,60.11
2018-03-01T05:39:47.265Z,60.11
2018-03-01T05:40:47.277Z,60.58
2018-03-01T05:41:47.023Z,60.49
2018-03-01T05:42:47.281Z,60.86
2018-03-01T05:43:47.344Z,60.58
2018-03-01T05:44:47.295Z,60.39
2018-03-01T05:45:47.304Z,60.11
2018-03-01T05:46:47.309Z,59.92
2018-03-01T05:47:47.318Z,59.77
2018-03-01T05:48:47.323Z,59.64
2018-03-01T05:49:47.078Z,59.55
2018-03-01T05:50:47.337Z,59.74
2018-03-01T05:51:47.344Z,59.58
2018-03-01T05:52:47.097Z,59.74
2018-03-01T05:53:47.352Z,59.95
2018-03-01T05:54:47.369Z,59.48
2018-03-01T05:55:47.113Z,59.92
2018-03-01T05:56:47.374Z,59.45
2018-03-01T05:57:47.382Z,59.95
2018-03-01T05:58:47.436Z,59.64
2018-03-01T05:59:47.140Z,59.95
2018-03-01T06:00:47.403Z,59.77
2018-03-01T06:01:47.408Z,59.58
2018-03-01T06:02:47.414Z,59.48
2018-03-01T06:03:47.167Z,59.45
2018-03-01T06:04:47.434Z,59.83
2018-03-01T06:05:47.434Z,59.74
2018-03-01T06:06:47.444Z,60.02
2018-03-01T06:07:47.452Z,60.11
2018-03-01T06:08:47.455Z,60.86
2018-03-01T06:09:47.460Z,61.05
2018-03-01T06:10:47.214Z,60.68
2018-03-01T06:11:47.473Z,60.21
2018-03-01T06:12:47.226Z,60.11
2018-03-01T06:13:47.537Z,59.83
2018-03-01T06:14:47.497Z,59.83
2018-03-01T06:15:47.498Z,59.74
2018-03-01T06:16:47.254Z,60.05
2018-03-01T06:17:47.518Z,59.95
2018-03-01T06:18:47.519Z,59.67
2018-03-01T06:19:47.526Z,59.86
2018-03-01T06:20:47.531Z,59.48
2018-03-01T06:21:47.540Z,59.3
2018-03-01T06:22:47.545Z,59.3
2018-03-01T06:23:47.605Z,59.01
2018-03-01T06:24:47.572Z,59.58
2018-03-01T06:25:47.565Z,59.95
2018-03-01T06:26:47.572Z,59.67
2018-03-01T06:27:47.594Z,59.58
2018-03-01T06:28:47.636Z,59.67
2018-03-01T06:29:47.592Z,59.58
2018-03-01T06:30:47.602Z,59.01
2018-03-01T06:31:47.352Z,58.82
2018-03-01T06:32:47.621Z,58.54
2018-03-01T06:33:47.621Z,58.54
2018-03-01T06:34:47.627Z,58.7
2018-03-01T06:35:47.634Z,59.55
2018-03-01T06:36:47.388Z,59.39
2018-03-01T06:37:47.650Z,59.3
2018-03-01T06:38:47.753Z,59.67
2018-03-01T06:39:47.407Z,58.54
2018-03-01T06:40:47.674Z,58.82
2018-03-01T06:41:47.420Z,58.63
2018-03-01T06:42:47.680Z,58.26
2018-03-01T06:43:47.746Z,58.26
2018-03-01T06:44:47.695Z,57.6
2018-03-01T06:45:47.701Z,57.5
2018-03-01T06:46:47.461Z,57.5
2018-03-01T06:47:47.721Z,57.78
2018-03-01T06:48:47.727Z,57.6
2018-03-01T06:49:47.727Z,57.69
2018-03-01T06:50:47.748Z,57.41
2018-03-01T06:51:47.493Z,57.69
2018-03-01T06:52:47.752Z,57.6
2018-03-01T06:53:47.754Z,57.41
2018-03-01T06:54:47.510Z,57.22
2018-03-01T06:55:47.768Z,57.5
2018-03-01T06:56:47.777Z,57.88
2018-03-01T06:57:47.783Z,57.41
2018-03-01T06:58:47.588Z,57.6
2018-03-01T06:59:47.545Z,57.6
2018-03-01T07:00:47.803Z,57.69
2018-03-01T07:01:47.814Z,57.6
2018-03-01T07:02:47.821Z,57.69
2018-03-01T07:03:47.824Z,57.6
2018-03-01T07:04:47.834Z,57.41
2018-03-01T07:05:47.881Z,57.6
2018-03-01T07:06:47.847Z,57.69
2018-03-01T07:07:47.854Z,57.69
2018-03-01T07:08:47.858Z,57.5
2018-03-01T07:09:47.866Z,57.6
2018-03-01T07:10:47.874Z,57.6
2018-03-01T07:11:47.628Z,57.69
2018-03-01T07:12:47.635Z,57.69
2018-03-01T07:13:47.951Z,57.6
2018-03-01T07:14:47.903Z,57.88
2018-03-01T07:15:47.909Z,58.16
2018-03-01T07:16:47.664Z,58.07
2018-03-01T07:17:47.670Z,57.6
2018-03-01T07:18:47.932Z,58.26
2018-03-01T07:19:47.961Z,58.07
2018-03-01T07:20:47.959Z,57.88
2018-03-01T07:21:47.997Z,58.26
2018-03-01T07:22:47.956Z,57.78
2018-03-01T07:23:47.968Z,57.69
2018-03-01T07:24:47.719Z,57.69
2018-03-01T07:25:47.977Z,57.6
2018-03-01T07:26:47.731Z,57.5
2018-03-01T07:27:47.748Z,57.6
2018-03-01T07:28:48.046Z,57.5
2018-03-01T07:29:48.013Z,57.22
2018-03-01T07:30:48.018Z,56.84
2018-03-01T07:31:48.021Z,56.46
2018-03-01T07:32:48.034Z,56.65
2018-03-01T07:33:48.034Z,56.93
2018-03-01T07:34:47.785Z,57.22
2018-03-01T07:35:48.057Z,57.12
2018-03-01T07:36:48.052Z,57.22
2018-03-01T07:37:48.062Z,57.12
2018-03-01T07:38:48.068Z,56.65
2018-03-01T07:39:47.823Z,56.27
2018-03-01T07:40:47.829Z,55.9
2018-03-01T07:41:48.081Z,56.09
2018-03-01T07:42:48.101Z,56.18
2018-03-01T07:43:47.899Z,55.71
2018-03-01T07:44:48.112Z,55.8
2018-03-01T07:45:48.117Z,55.62
2018-03-01T07:46:48.124Z,56.27
2018-03-01T07:47:48.129Z,56.56
2018-03-01T07:48:48.139Z,56.75
2018-03-01T07:49:48.168Z,56.56
2018-03-01T07:50:48.151Z,56.46
2018-03-01T07:51:48.157Z,56.46
2018-03-01T07:52:48.165Z,56.65
2018-03-01T07:53:48.172Z,57.03
2018-03-01T07:54:48.179Z,57.12
2018-03-01T07:55:48.188Z,56.46
2018-03-01T07:56:48.194Z,56.75
2018-03-01T07:57:48.207Z,56.37
2018-03-01T07:58:48.258Z,55.9
2018-03-01T07:59:47.962Z,56.09
2018-03-01T08:00:48.222Z,56.09
2018-03-01T08:01:48.229Z,55.15
2018-03-01T08:02:48.237Z,55.15
2018-03-01T08:03:48.250Z,55.33
2018-03-01T08:04:48.249Z,55.24
2018-03-01T08:05:48.260Z,55.9
2018-03-01T08:06:48.271Z,55.9
2018-03-01T08:07:48.274Z,55.99
2018-03-01T08:08:48.383Z,55.8
2018-03-01T08:09:48.291Z,55.71
2018-03-01T08:10:48.296Z,55.9
2018-03-01T08:11:48.308Z,56.18
2018-03-01T08:12:48.055Z,55.71
2018-03-01T08:13:48.114Z,55.71
2018-03-01T08:14:48.335Z,55.24
2018-03-01T08:15:48.337Z,55.62
2018-03-01T08:16:48.473Z,55.43
2018-03-01T08:17:48.352Z,54.96
2018-03-01T08:18:48.365Z,55.33
2018-03-01T08:19:48.361Z,54.96
2018-03-01T08:20:48.365Z,55.15
2018-03-01T08:21:48.376Z,54.96
2018-03-01T08:22:48.131Z,55.24
2018-03-01T08:23:48.388Z,55.33
2018-03-01T08:24:48.404Z,55.15
2018-03-01T08:25:48.403Z,55.24
2018-03-01T08:26:48.417Z,55.15
2018-03-01T08:27:48.415Z,55.33
2018-03-01T08:28:48.480Z,54.89
2018-03-01T08:29:48.445Z,55.27
2018-03-01T08:30:48.445Z,54.8
2018-03-01T08:31:48.452Z,54.51
2018-03-01T08:32:48.460Z,54.42
2018-03-01T08:33:48.213Z,54.23
2018-03-01T08:34:48.480Z,54.33
2018-03-01T08:35:48.482Z,54.14
2018-03-01T08:36:48.493Z,53.66
2018-03-01T08:37:48.500Z,53.66
2018-03-01T08:38:48.503Z,54.14
2018-03-01T08:39:48.519Z,53.76
2018-03-01T08:40:48.521Z,53.95
2018-03-01T08:41:48.530Z,53.38
2018-03-01T08:42:48.561Z,53
2018-03-01T08:43:48.593Z,53.38
2018-03-01T08:44:48.297Z,53.29
2018-03-01T08:45:48.562Z,53.29
2018-03-01T08:46:48.314Z,53
2018-03-01T08:47:48.587Z,53.1
2018-03-01T08:48:48.656Z,53.1
2018-03-01T08:49:48.592Z,52.53
2018-03-01T08:50:48.607Z,51.97
2018-03-01T08:51:48.617Z,51.59
2018-03-01T08:52:48.363Z,51.5
2018-03-01T08:53:48.624Z,51.31
2018-03-01T08:54:48.633Z,51.12
2018-03-01T08:55:48.392Z,50.93
2018-03-01T08:56:48.656Z,51.12
2018-03-01T08:57:48.402Z,51.21
2018-03-01T08:58:48.461Z,51.59
2018-03-01T08:59:48.674Z,51.78
2018-03-01T09:00:48.685Z,51.5
2018-03-01T09:01:48.441Z,51.4
2018-03-01T09:02:48.701Z,51.24
2018-03-01T09:03:48.707Z,50.95
2018-03-01T09:04:48.716Z,50.48
2018-03-01T09:05:48.470Z,50.58
2018-03-01T09:06:48.732Z,50.1
2018-03-01T09:07:48.745Z,49.63
2018-03-01T09:08:48.498Z,49.82
2018-03-01T09:09:48.761Z,49.63
2018-03-01T09:10:48.774Z,49.07
2018-03-01T09:11:48.775Z,48.69
2018-03-01T09:12:48.786Z,48.32
2018-03-01T09:13:48.854Z,47.94
2018-03-01T09:14:48.856Z,48.03
2018-03-01T09:15:48.815Z,47.84
2018-03-01T09:16:48.824Z,48.69
2018-03-01T09:17:48.840Z,48.41
2018-03-01T09:18:48.842Z,48.41
2018-03-01T09:19:48.597Z,48.6
2018-03-01T09:20:48.863Z,48.13
2018-03-01T09:21:48.870Z,47.94
2018-03-01T09:22:48.879Z,47.58
2018-03-01T09:23:48.887Z,47.09
2018-03-01T09:24:49.006Z,47.37
2018-03-01T09:25:48.902Z,47.65
2018-03-01T09:26:48.918Z,47.65
2018-03-01T09:27:48.974Z,47.94
2018-03-01T09:28:48.987Z,47.46
2018-03-01T09:29:48.948Z,47.56
2018-03-01T09:30:48.698Z,47.56
2018-03-01T09:31:48.959Z,48.22
2018-03-01T09:32:48.969Z,47.94
2018-03-01T09:33:48.976Z,47.75
2018-03-01T09:34:48.988Z,47.37
2018-03-01T09:35:48.744Z,47.46
2018-03-01T09:36:49.091Z,47.67
2018-03-01T09:37:49.021Z,47.2
2018-03-01T09:38:49.032Z,46.92
2018-03-01T09:39:49.038Z,46.64
2018-03-01T09:40:49.046Z,46.55
2018-03-01T09:41:48.800Z,46.83
2018-03-01T09:42:48.812Z,47.3
2018-03-01T09:43:49.075Z,47.39
2018-03-01T09:44:49.492Z,47.2
2018-03-01T09:45:49.096Z,47.58
2018-03-01T09:46:49.106Z,47.49
2018-03-01T09:47:49.111Z,47.49
2018-03-01T09:48:49.124Z,46.73
2018-03-01T09:49:49.132Z,46.55
2018-03-01T09:50:49.143Z,45.98
2018-03-01T09:51:49.151Z,46.55
2018-03-01T09:52:48.914Z,46.64
2018-03-01T09:53:48.918Z,46.64
2018-03-01T09:54:49.182Z,46.83
2018-03-01T09:55:49.190Z,46.73
2018-03-01T09:56:49.201Z,46.07
2018-03-01T09:57:49.213Z,46.45
2018-03-01T09:58:49.218Z,46.17
2018-03-01T09:59:49.026Z,46.17
2018-03-01T10:00:49.235Z,45.69
2018-03-01T10:01:49.250Z,45.6
2018-03-01T10:02:49.260Z,45.79
2018-03-01T10:03:49.267Z,46.45
2018-03-01T10:04:49.279Z,46.45
2018-03-01T10:05:49.287Z,45.79
2018-03-01T10:06:49.048Z,46.07
2018-03-01T10:07:49.303Z,46.45
2018-03-01T10:08:49.317Z,46.26
2018-03-01T10:09:49.326Z,46.83
2018-03-01T10:10:49.336Z,46.07
2018-03-01T10:11:49.349Z,46.07
2018-03-01T10:12:49.417Z,46.64
2018-03-01T10:13:49.364Z,46.92
2018-03-01T10:14:49.423Z,47.49
2018-03-01T10:15:49.382Z,47.2
2018-03-01T10:16:49.394Z,47.49
2018-03-01T10:17:49.399Z,47.39
2018-03-01T10:18:49.411Z,47.27
2018-03-01T10:19:49.421Z,47.46
2018-03-01T10:20:49.428Z,47.3
2018-03-01T10:21:49.436Z,47.2
2018-03-01T10:22:49.447Z,47.77
2018-03-01T10:23:49.203Z,47.37
2018-03-01T10:24:49.472Z,47.49
2018-03-01T10:25:49.479Z,47.3
2018-03-01T10:26:49.487Z,47.39
2018-03-01T10:27:49.247Z,47.11
2018-03-01T10:28:49.507Z,47.49
2018-03-01T10:29:49.568Z,47.3
2018-03-01T10:30:49.583Z,47.67
2018-03-01T10:31:49.533Z,48.43
2018-03-01T10:32:49.288Z,48.24
2018-03-01T10:33:49.551Z,48.24
2018-03-01T10:34:49.561Z,47.86
2018-03-01T10:35:49.574Z,47.86
2018-03-01T10:36:49.326Z,47.77
2018-03-01T10:37:49.336Z,47.49
2018-03-01T10:38:49.342Z,47.49
2018-03-01T10:39:49.605Z,47.02
2018-03-01T10:40:49.622Z,47.3
2018-03-01T10:41:49.383Z,46.64
2018-03-01T10:42:49.636Z,46.64
2018-03-01T10:43:49.645Z,46.73
2018-03-01T10:44:49.705Z,46.92
2018-03-01T10:45:49.665Z,46.73
2018-03-01T10:46:49.673Z,46.55
2018-03-01T10:47:49.682Z,46.73
2018-03-01T10:48:49.449Z,46.73
2018-03-01T10:49:49.447Z,46.55
2018-03-01T10:50:49.456Z,46.17
2018-03-01T10:51:49.720Z,45.69
2018-03-01T10:52:49.733Z,45.69
2018-03-01T10:53:49.483Z,45.79
2018-03-01T10:54:49.751Z,45.79
2018-03-01T10:55:49.758Z,45.6
2018-03-01T10:56:49.767Z,45.69
2018-03-01T10:57:49.775Z,45.41
2018-03-01T10:58:49.532Z,45.32
2018-03-01T10:59:49.598Z,45.32
2018-03-01T11:00:49.811Z,45.5
2018-03-01T11:01:49.815Z,45.32
2018-03-01T11:02:49.824Z,45.32
2018-03-01T11:03:49.841Z,45.6
2018-03-01T11:04:49.846Z,45.79
2018-03-01T11:05:49.605Z,46.17
2018-03-01T11:06:49.865Z,46.45
2018-03-01T11:07:49.878Z,46.17
2018-03-01T11:08:49.631Z,46.26
2018-03-01T11:09:49.897Z,46.26
2018-03-01T11:10:49.909Z,46.55
2018-03-01T11:11:49.914Z,46.55
2018-03-01T11:12:49.927Z,45.79
2018-03-01T11:13:49.681Z,45.79
2018-03-01T11:14:49.995Z,45.6
2018-03-01T11:15:49.701Z,45.25
2018-03-01T11:16:49.717Z,44.58
2018-03-01T11:17:49.984Z,44.77
2018-03-01T11:18:49.990Z,44.77
2018-03-01T11:19:49.744Z,44.68
2018-03-01T11:20:50.008Z,44.65
2018-03-01T11:21:50.015Z,45.32
2018-03-01T11:22:50.023Z,45.5
2018-03-01T11:23:50.034Z,45.32
2018-03-01T11:24:50.044Z,45.32
2018-03-01T11:25:50.061Z,45.6
2018-03-01T11:26:50.064Z,45.88
2018-03-01T11:27:50.072Z,45.6
2018-03-01T11:28:50.085Z,45.69
2018-03-01T11:29:49.840Z,45.88
2018-03-01T11:30:49.851Z,45.5
2018-03-01T11:31:49.861Z,45.72
2018-03-01T11:32:50.124Z,45.06
2018-03-01T11:33:50.140Z,44.68
2018-03-01T11:34:50.239Z,44.68
2018-03-01T11:35:49.903Z,44.68
2018-03-01T11:36:50.168Z,44.39
2018-03-01T11:37:49.926Z,44.49
2018-03-01T11:38:50.190Z,43.83
2018-03-01T11:39:50.222Z,43.64
2018-03-01T11:40:49.952Z,43.54
2018-03-01T11:41:49.963Z,43.92
2018-03-01T11:42:49.974Z,44.39
2018-03-01T11:43:49.987Z,44.39
2018-03-01T11:44:50.248Z,44.49
2018-03-01T11:45:50.259Z,44.58
2018-03-01T11:46:50.321Z,44.3
2018-03-01T11:47:50.282Z,43.64
2018-03-01T11:48:50.037Z,43.73
2018-03-01T11:49:50.303Z,43.64
2018-03-01T11:50:50.314Z,43.83
2018-03-01T11:51:50.323Z,44.3
2018-03-01T11:52:50.332Z,43.83
2018-03-01T11:53:50.093Z,43.45
2018-03-01T11:54:50.358Z,43.09
2018-03-01T11:55:50.370Z,41.86
2018-03-01T11:56:50.225Z,41.58
2018-03-01T11:57:50.392Z,40.75
2018-03-01T11:58:50.407Z,39.9
2018-03-01T11:59:50.420Z,39.71
2018-03-01T12:00:50.177Z,38.5
2018-03-01T12:01:50.240Z,37.74
2018-03-01T12:02:50.203Z,36.61
2018-03-01T12:03:50.219Z,36.44
2018-03-01T12:04:50.234Z,35.95
2018-03-01T12:05:50.249Z,35.66
2018-03-01T12:06:50.517Z,35.77
2018-03-01T12:07:50.534Z,35.38
2018-03-01T12:08:50.546Z,35.3
2018-03-01T12:09:50.560Z,35.21
2018-03-01T12:10:50.577Z,35.02
2018-03-01T12:11:50.338Z,34.55
2018-03-01T12:12:50.611Z,33.88
2018-03-01T12:13:50.366Z,33.23
2018-03-01T12:14:50.637Z,32.48
2018-03-01T12:15:50.656Z,32.01
2018-03-01T12:16:50.725Z,31.72
2018-03-01T12:17:50.686Z,30.79
2018-03-01T12:18:50.449Z,30.69
2018-03-01T12:19:50.727Z,30.6
2018-03-01T12:20:50.489Z,29.57
2018-03-01T12:21:50.509Z,29.38
2018-03-01T12:22:50.787Z,29.48
2018-03-01T12:23:50.547Z,29.48
2018-03-01T12:24:50.567Z,29.1
2018-03-01T12:25:50.839Z,28.25
2018-03-01T12:26:50.859Z,28.63
2018-03-01T12:27:50.894Z,28.34
2018-03-01T12:28:50.644Z,28.53
2018-03-01T12:29:50.920Z,28.06
2018-03-01T12:30:50.684Z,27.88
2018-03-01T12:31:50.757Z,27.59
2018-03-01T12:32:50.978Z,26.95
2018-03-01T12:33:50.744Z,26.38
2018-03-01T12:34:51.026Z,26.18
2018-03-01T12:35:51.037Z,25.15
2018-03-01T12:36:51.109Z,24.51
2018-03-01T12:37:51.082Z,24.41
2018-03-01T12:38:50.848Z,23.93
2018-03-01T12:39:51.121Z,23.65
2018-03-01T12:40:51.142Z,23.93
2018-03-01T12:41:51.164Z,23.74
2018-03-01T12:42:51.186Z,23.65
2018-03-01T12:43:51.211Z,23.93
2018-03-01T12:44:51.231Z,23.66
2018-03-01T12:45:51.254Z,22.8
2018-03-01T12:46:51.274Z,22.34
2018-03-01T12:47:51.297Z,22.25
2018-03-01T12:48:51.321Z,21.21
2018-03-01T12:49:51.089Z,20.46
2018-03-01T12:50:51.112Z,19.98
2018-03-01T12:51:51.441Z,19.7
2018-03-01T12:52:51.464Z,19.32
2018-03-01T12:53:51.438Z,19.22
2018-03-01T12:54:51.208Z,19.22
2018-03-01T12:55:51.232Z,19.22
2018-03-01T12:56:51.509Z,19.22